AirNav   Air Wisconsin Up To $57,000 Bonus
 
 1358 users online  

IA71 Indianola Heliport
Indianola, Iowa, USA

GOING TO INDIANOLA?


FAA INFORMATION EFFECTIVE 30 JANUARY 2020

Location

FAA Identifier: IA71
Lat/Long: 41-22-06.7700N 093-33-19.7000W
41-22.112833N 093-33.328333W
41.3685472,-93.5554722
(estimated)
Elevation: 950 ft. / 290 m (estimated)
Variation: 04E (1990)
Time zone: UTC -6 (UTC -5 during Daylight Saving Time)
Zip code: 50125

Heliport Operations

Heliport use: Private use. Permission required prior to landing
Activation date: 02/1992
Control tower: no
ARTCC: MINNEAPOLIS CENTER
FSS: FORT DODGE FLIGHT SERVICE STATION
Attendance: UNATNDD
Wind indicator: yes
Segmented circle: no
Lights: SS-SR

Heliport Communications

WX ASOS at DSM (11 nm NW): 119.55 (515-974-8013)
WX AWOS-3 at IKV (19 nm N): 119.175 (515-965-5764)
WX AWOS-3 at I75 (20 nm S): 120.975 (641-342-1422)

Nearby radio navigation aids

VOR radial/distance  VOR name  Freq  Var
DSMr128/5.9DES MOINES VORTAC117.5007E
TNUr216/32.0NEWTON VOR/DME112.5003E

 
NDB name  Hdg/Dist  Freq  Var  ID
PELLA264/27.625702EPEA .--. . .-

Heliport Services

Runway Information

Helipad H1

Dimensions: 50 x 50 ft. / 15 x 15 m
Surface: concrete
Runway edge lights: PERI
Latitude: 41-22.112833N
Longitude: 093-33.328333W
Elevation: 950.0 ft.
Traffic pattern: leftleft

Heliport Ownership and Management from official FAA records

Ownership: Publicly-owned
Owner: CITY OF INDIANOLA
110 N 1ST ST
INDIANOLA, IA 50125
Phone 515-961-9405
Manager: CHIEF GREG CHIA
110 N 1ST ST
INDIANOLA, IA 50125
Phone 515-961-9405

Additional Remarks

A52-H1 MARKED PLINES S OF IOWA ST; MARKED BLDG EAST OF HELIPAD; 155 FT MARKED GRAIN BIN AND ELEVATOR 1 MILE SE AND A MARKED BLDG SW OF HELIPAD.
FOR CD CTC MINNEAPOLIS ARTCC AT 651-463-5588.

Instrument Procedures

There are no published instrument procedures at IA71.

Some nearby airports with instrument procedures:

KDSM - Des Moines International Airport (11 nm NW)
KIKV - Ankeny Regional Airport (19 nm N)
I75 - Osceola Municipal Airport (20 nm S)
KOXV - Knoxville Municipal Airport (20 nm E)
3Y3 - Winterset Municipal Airport (21 nm W)
 
Loc | Ops | Rwys | IFR | FBO | Links
Com | Nav | Svcs | Stats | Notes
Area around IA71 (Indianola Heliport)
 
Road maps at: MapQuest Bing Google
 
Aerial photo
No photo
 
Sectional chart

 
Airport distance calculator
Flying to Indianola Heliport? Find the distance to fly.

From to IA71

Sunrise and sunset
Times for 17-Feb-2020
 Local
(UTC-6)
 Zulu
(UTC)
Morning civil twilight06:3912:39
Sunrise07:0713:07
Sunset17:4923:49
Evening civil twilight18:1700:17

Current date and time
Zulu (UTC)  17-Feb-2020 17:17:47
Local (UTC-6)  17-Feb-2020 11:17:47
 
METAR
KDSM 
11nm NW 
171654Z 10006KT 3SM BR SCT004 BKN037 BKN070 OVC130 02/01 A2986 RMK AO2 SLP118 T00170006 $
KIKV 
19nm N 
171655Z AUTO 13007KT 4SM BR BKN005 BKN065 02/01 A2987 RMK AO2
KI75 
20nm S 
171655Z AUTO 13007KT 5SM BR BKN080 05/03 A2984 RMK AO2 T00450026
KOXV 
20nm E 
171655Z AUTO 14007KT 5SM BR FEW006 BKN080 02/02 A2985 RMK AO2
TAF
KDSM 
11nm NW 
171139Z 1712/1812 11004KT P6SM -RA BKN040 BKN060 OVC080 FM171400 14004KT 5SM -RA OVC035 FM171900 18004KT P6SM VCSH BKN010 FM172300 31010KT P6SM BKN015 FM180100 32014G22KT P6SM BKN010
NOTAMs
Click for the latest NOTAMs
NOTAMs are issued by the DoD/FAA and will open in a separate window not controlled by AirNav.

 

 
 

Would you like to see your business listed on this page?

 If your business provides an interesting product or service to pilots, flight crews, aircraft, or users of the Indianola Heliport, you should consider listing it here.  To start the listing process, click on the button below
 
Add a business
 

Other Pages about Indianola Heliport

Update a link
 
Copyright © AirNav, LLC. All rights reserved. Privacy Policy  Contact